sensor_id;sensor_type;location;lat;lon;timestamp;pressure;altitude;pressure_sealevel;temperature;humidity
8160;BME280;27404;52.398;9.646;2023-02-28T00:00:18;102408.06;;;-1.94;100.00
8160;BME280;27404;52.398;9.646;2023-02-28T00:02:44;102414.63;;;-2.11;100.00
8160;BME280;27404;52.398;9.646;2023-02-28T00:05:11;102414.97;;;-2.28;100.00
8160;BME280;27404;52.398;9.646;2023-02-28T00:07:37;102412.28;;;-2.41;100.00
8160;BME280;27404;52.398;9.646;2023-02-28T00:10:04;102412.91;;;-2.50;100.00
8160;BME280;27404;52.398;9.646;2023-02-28T00:12:31;102418.06;;;-2.60;100.00
8160;BME280;27404;52.398;9.646;2023-02-28T00:14:57;102411.63;;;-2.58;100.00
8160;BME280;27404;52.398;9.646;2023-02-28T00:17:22;102421.06;;;-2.52;100.00
8160;BME280;27404;52.398;9.646;2023-02-28T00:19:49;102411.31;;;-2.53;100.00
8160;BME280;27404;52.398;9.646;2023-02-28T00:22:17;102412.16;;;-2.53;100.00
8160;BME280;27404;52.398;9.646;2023-02-28T00:24:42;102409.41;;;-2.51;100.00
8160;BME280;27404;52.398;9.646;2023-02-28T00:27:08;102408.63;;;-2.53;100.00
8160;BME280;27404;52.398;9.646;2023-02-28T00:29:33;102414.63;;;-2.62;100.00
8160;BME280;27404;52.398;9.646;2023-02-28T00:31:59;102415.03;;;-2.69;100.00
8160;BME280;27404;52.398;9.646;2023-02-28T00:34:24;102410.31;;;-2.78;100.00
8160;BME280;27404;52.398;9.646;2023-02-28T00:36:49;102412.97;;;-2.91;100.00
8160;BME280;27404;52.398;9.646;2023-02-28T00:39:15;102405.53;;;-3.00;100.00
8160;BME280;27404;52.398;9.646;2023-02-28T00:41:41;102406.91;;;-3.07;100.00
8160;BME280;27404;52.398;9.646;2023-02-28T00:44:06;102404.44;;;-3.10;100.00
8160;BME280;27404;52.398;9.646;2023-02-28T00:46:32;102406.28;;;-3.11;100.00
8160;BME280;27404;52.398;9.646;2023-02-28T00:48:57;102406.00;;;-3.21;100.00
8160;BME280;27404;52.398;9.646;2023-02-28T00:51:23;102397.78;;;-3.18;100.00
8160;BME280;27404;52.398;9.646;2023-02-28T00:53:48;102409.44;;;-3.19;100.00
8160;BME280;27404;52.398;9.646;2023-02-28T00:56:14;102409.44;;;-3.19;100.00
8160;BME280;27404;52.398;9.646;2023-02-28T00:58:39;102413.81;;;-3.18;100.00
8160;BME280;27404;52.398;9.646;2023-02-28T01:01:05;102410.09;;;-3.15;100.00
8160;BME280;27404;52.398;9.646;2023-02-28T01:03:31;102410.75;;;-3.12;100.00
8160;BME280;27404;52.398;9.646;2023-02-28T01:05:57;102413.88;;;-3.05;100.00
8160;BME280;27404;52.398;9.646;2023-02-28T01:08:23;102417.13;;;-3.00;100.00
8160;BME280;27404;52.398;9.646;2023-02-28T01:10:48;102409.50;;;-3.06;100.00
8160;BME280;27404;52.398;9.646;2023-02-28T01:13:14;102415.53;;;-3.17;100.00
8160;BME280;27404;52.398;9.646;2023-02-28T01:15:43;102410.91;;;-3.28;100.00
8160;BME280;27404;52.398;9.646;2023-02-28T01:18:10;102404.78;;;-3.30;100.00
8160;BME280;27404;52.398;9.646;2023-02-28T01:20:39;102410.34;;;-3.33;100.00
8160;BME280;27404;52.398;9.646;2023-02-28T01:23:04;102411.81;;;-3.42;100.00
8160;BME280;27404;52.398;9.646;2023-02-28T01:25:30;102419.34;;;-3.48;100.00
8160;BME280;27404;52.398;9.646;2023-02-28T01:27:55;102412.50;;;-3.52;100.00
8160;BME280;27404;52.398;9.646;2023-02-28T01:30:21;102413.75;;;-3.58;100.00
8160;BME280;27404;52.398;9.646;2023-02-28T01:32:46;102412.03;;;-3.59;100.00
8160;BME280;27404;52.398;9.646;2023-02-28T01:35:12;102416.16;;;-3.68;100.00
8160;BME280;27404;52.398;9.646;2023-02-28T01:37:37;102411.88;;;-3.70;100.00
8160;BME280;27404;52.398;9.646;2023-02-28T01:40:03;102407.88;;;-3.78;100.00
8160;BME280;27404;52.398;9.646;2023-02-28T01:42:28;102411.03;;;-3.85;100.00
8160;BME280;27404;52.398;9.646;2023-02-28T01:47:47;102403.97;;;-4.01;100.00
8160;BME280;27404;52.398;9.646;2023-02-28T01:50:17;102408.66;;;-4.05;100.00
8160;BME280;27404;52.398;9.646;2023-02-28T01:52:45;102412.94;;;-4.02;100.00
8160;BME280;27404;52.398;9.646;2023-02-28T01:55:12;102411.03;;;-4.00;100.00
8160;BME280;27404;52.398;9.646;2023-02-28T01:57:43;102405.38;;;-3.95;100.00
8160;BME280;27404;52.398;9.646;2023-02-28T02:00:14;102410.00;;;-3.97;100.00
8160;BME280;27404;52.398;9.646;2023-02-28T02:02:47;102411.03;;;-4.00;100.00
8160;BME280;27404;52.398;9.646;2023-02-28T02:05:15;102409.31;;;-4.01;100.00
8160;BME280;27404;52.398;9.646;2023-02-28T02:07:43;102411.03;;;-4.14;100.00
8160;BME280;27404;52.398;9.646;2023-02-28T02:10:20;102410.06;;;-4.28;100.00
8160;BME280;27404;52.398;9.646;2023-02-28T02:15:28;102403.97;;;-4.16;100.00
8160;BME280;27404;52.398;9.646;2023-02-28T02:17:59;102399.75;;;-4.20;100.00
8160;BME280;27404;52.398;9.646;2023-02-28T02:32:12;102393.34;;;-4.46;100.00
8160;BME280;27404;52.398;9.646;2023-02-28T02:34:54;102390.06;;;-4.35;100.00
8160;BME280;27404;52.398;9.646;2023-02-28T02:37:41;102389.56;;;-4.42;100.00
8160;BME280;27404;52.398;9.646;2023-02-28T02:47:44;102399.06;;;-4.52;100.00
8160;BME280;27404;52.398;9.646;2023-02-28T02:50:15;102394.28;;;-4.62;100.00
8160;BME280;27404;52.398;9.646;2023-02-28T02:52:46;102401.84;;;-4.54;100.00
8160;BME280;27404;52.398;9.646;2023-02-28T02:55:14;102402.03;;;-4.57;100.00
8160;BME280;27404;52.398;9.646;2023-02-28T02:57:48;102400.50;;;-4.61;100.00
8160;BME280;27404;52.398;9.646;2023-02-28T03:00:17;102392.78;;;-4.66;100.00
8160;BME280;27404;52.398;9.646;2023-02-28T03:02:45;102391.78;;;-4.79;100.00
8160;BME280;27404;52.398;9.646;2023-02-28T03:05:19;102398.06;;;-4.80;100.00
8160;BME280;27404;52.398;9.646;2023-02-28T03:07:46;102394.28;;;-4.76;100.00
8160;BME280;27404;52.398;9.646;2023-02-28T03:13:03;102395.84;;;-4.88;100.00
8160;BME280;27404;52.398;9.646;2023-02-28T03:18:46;102397.25;;;-4.97;100.00
8160;BME280;27404;52.398;9.646;2023-02-28T03:21:26;102391.75;;;-4.94;100.00
8160;BME280;27404;52.398;9.646;2023-02-28T03:24:07;102396.97;;;-4.92;100.00
8160;BME280;27404;52.398;9.646;2023-02-28T03:26:39;102390.19;;;-4.98;100.00
8160;BME280;27404;52.398;9.646;2023-02-28T03:29:23;102384.47;;;-5.06;100.00
8160;BME280;27404;52.398;9.646;2023-02-28T03:32:14;102391.97;;;-5.13;100.00
8160;BME280;27404;52.398;9.646;2023-02-28T03:34:53;102386.88;;;-5.17;100.00
8160;BME280;27404;52.398;9.646;2023-02-28T03:37:24;102386.81;;;-5.16;100.00
8160;BME280;27404;52.398;9.646;2023-02-28T03:39:57;102380.84;;;-5.05;100.00
8160;BME280;27404;52.398;9.646;2023-02-28T03:42:27;102388.53;;;-5.15;100.00
8160;BME280;27404;52.398;9.646;2023-02-28T03:44:58;102387.22;;;-5.24;100.00
8160;BME280;27404;52.398;9.646;2023-02-28T03:49:56;102382.75;;;-5.07;100.00
8160;BME280;27404;52.398;9.646;2023-02-28T03:52:27;102385.69;;;-5.12;100.00
8160;BME280;27404;52.398;9.646;2023-02-28T03:54:59;102384.56;;;-5.24;100.00
8160;BME280;27404;52.398;9.646;2023-02-28T03:59:59;102390.25;;;-5.14;100.00
8160;BME280;27404;52.398;9.646;2023-02-28T04:02:29;102387.66;;;-5.15;100.00
8160;BME280;27404;52.398;9.646;2023-02-28T04:04:55;102387.94;;;-5.20;100.00
8160;BME280;27404;52.398;9.646;2023-02-28T04:07:20;102389.66;;;-5.19;100.00
8160;BME280;27404;52.398;9.646;2023-02-28T04:09:46;102390.84;;;-5.25;100.00
8160;BME280;27404;52.398;9.646;2023-02-28T04:12:11;102391.53;;;-5.21;100.00
8160;BME280;27404;52.398;9.646;2023-02-28T04:14:37;102390.44;;;-5.17;100.00
8160;BME280;27404;52.398;9.646;2023-02-28T04:17:02;102386.34;;;-5.08;100.00
8160;BME280;27404;52.398;9.646;2023-02-28T04:19:28;102391.97;;;-5.13;100.00
8160;BME280;27404;52.398;9.646;2023-02-28T04:21:53;102397.06;;;-5.24;100.00
8160;BME280;27404;52.398;9.646;2023-02-28T04:24:21;102391.78;;;-5.26;100.00
8160;BME280;27404;52.398;9.646;2023-02-28T04:26:49;102392.94;;;-5.30;100.00
8160;BME280;27404;52.398;9.646;2023-02-28T04:29:24;102405.25;;;-5.43;100.00
8160;BME280;27404;52.398;9.646;2023-02-28T04:31:50;102401.38;;;-5.54;100.00
8160;BME280;27404;52.398;9.646;2023-02-28T04:34:18;102401.56;;;-5.57;100.00
8160;BME280;27404;52.398;9.646;2023-02-28T04:36:44;102392.44;;;-5.53;100.00
8160;BME280;27404;52.398;9.646;2023-02-28T04:39:11;102397.25;;;-5.43;100.00
8160;BME280;27404;52.398;9.646;2023-02-28T04:41:37;102397.44;;;-5.46;100.00
8160;BME280;27404;52.398;9.646;2023-02-28T04:44:02;102401.22;;;-5.51;100.00
8160;BME280;27404;52.398;9.646;2023-02-28T04:46:28;102409.53;;;-5.57;100.00
8160;BME280;27404;52.398;9.646;2023-02-28T04:48:53;102399.72;;;-5.56;100.00
8160;BME280;27404;52.398;9.646;2023-02-28T04:51:19;102399.38;;;-5.50;100.00
8160;BME280;27404;52.398;9.646;2023-02-28T04:53:46;102401.88;;;-5.47;100.00
8160;BME280;27404;52.398;9.646;2023-02-28T04:56:13;102405.41;;;-5.46;100.00
8160;BME280;27404;52.398;9.646;2023-02-28T04:58:39;102416.25;;;-5.50;100.00
8160;BME280;27404;52.398;9.646;2023-02-28T05:01:07;102405.41;;;-5.62;100.00
8160;BME280;27404;52.398;9.646;2023-02-28T05:03:40;102407.56;;;-5.69;100.00
8160;BME280;27404;52.398;9.646;2023-02-28T05:06:10;102403.28;;;-5.56;100.00
8160;BME280;27404;52.398;9.646;2023-02-28T05:08:36;102409.53;;;-5.57;100.00
8160;BME280;27404;52.398;9.646;2023-02-28T05:11:02;102403.09;;;-5.69;100.00
8160;BME280;27404;52.398;9.646;2023-02-28T05:13:29;102404.78;;;-5.84;100.00
8160;BME280;27404;52.398;9.646;2023-02-28T05:15:55;102404.00;;;-5.86;100.00
8160;BME280;27404;52.398;9.646;2023-02-28T05:18:21;102402.22;;;-5.85;100.00
8160;BME280;27404;52.398;9.646;2023-02-28T05:20:46;102408.00;;;-5.77;100.00
8160;BME280;27404;52.398;9.646;2023-02-28T05:23:13;102405.22;;;-5.75;100.00
8160;BME280;27404;52.398;9.646;2023-02-28T05:25:39;102405.72;;;-5.85;100.00
8160;BME280;27404;52.398;9.646;2023-02-28T05:28:05;102405.72;;;-5.85;100.00
8160;BME280;27404;52.398;9.646;2023-02-28T05:30:30;102409.59;;;-5.90;100.00
8160;BME280;27404;52.398;9.646;2023-02-28T05:32:57;102408.31;;;-5.83;100.00
8160;BME280;27404;52.398;9.646;2023-02-28T05:35:23;102409.34;;;-5.86;100.00
8160;BME280;27404;52.398;9.646;2023-02-28T05:37:48;102406.94;;;-5.90;100.00
8160;BME280;27404;52.398;9.646;2023-02-28T05:40:14;102408.66;;;-5.89;100.00
8160;BME280;27404;52.398;9.646;2023-02-28T05:42:40;102403.16;;;-5.86;100.00
8160;BME280;27404;52.398;9.646;2023-02-28T05:45:07;102405.66;;;-5.83;100.00
8160;BME280;27404;52.398;9.646;2023-02-28T05:47:32;102410.81;;;-5.80;100.00
8160;BME280;27404;52.398;9.646;2023-02-28T05:49:58;102411.41;;;-5.91;100.00
8160;BME280;27404;52.398;9.646;2023-02-28T05:52:23;102417.44;;;-5.87;100.00
8160;BME280;27404;52.398;9.646;2023-02-28T05:54:49;102416.22;;;-5.98;100.00
8160;BME280;27404;52.398;9.646;2023-02-28T05:57:14;102417.16;;;-5.99;100.00
8160;BME280;27404;52.398;9.646;2023-02-28T05:59:40;102420.00;;;-6.02;100.00
8160;BME280;27404;52.398;9.646;2023-02-28T06:02:13;102434.91;;;-6.15;100.00
8160;BME280;27404;52.398;9.646;2023-02-28T06:04:38;102426.16;;;-6.17;100.00
8160;BME280;27404;52.398;9.646;2023-02-28T06:07:06;102427.81;;;-6.15;100.00
8160;BME280;27404;52.398;9.646;2023-02-28T06:09:31;102429.75;;;-6.18;100.00
8160;BME280;27404;52.398;9.646;2023-02-28T06:11:58;102425.03;;;-6.13;100.00
8160;BME280;27404;52.398;9.646;2023-02-28T06:14:24;102434.53;;;-6.07;100.00
8160;BME280;27404;52.398;9.646;2023-02-28T06:16:50;102427.53;;;-5.94;100.00
8160;BME280;27404;52.398;9.646;2023-02-28T06:19:15;102430.91;;;-5.90;100.00
8160;BME280;27404;52.398;9.646;2023-02-28T06:21:41;102435.28;;;-5.89;100.00
8160;BME280;27404;52.398;9.646;2023-02-28T06:24:06;102437.09;;;-5.90;100.00
8160;BME280;27404;52.398;9.646;2023-02-28T06:26:32;102437.00;;;-5.88;100.00
8160;BME280;27404;52.398;9.646;2023-02-28T06:28:58;102444.06;;;-5.87;100.00
8160;BME280;27404;52.398;9.646;2023-02-28T06:31:23;102441.75;;;-5.77;100.00
8160;BME280;27404;52.398;9.646;2023-02-28T06:33:51;102446.13;;;-5.76;100.00
8160;BME280;27404;52.398;9.646;2023-02-28T06:36:17;102455.69;;;-5.72;100.00
8160;BME280;27404;52.398;9.646;2023-02-28T06:38:43;102449.06;;;-5.65;100.00
8160;BME280;27404;52.398;9.646;2023-02-28T06:41:09;102453.81;;;-5.54;100.00
8160;BME280;27404;52.398;9.646;2023-02-28T06:43:39;102455.44;;;-5.36;100.00
8160;BME280;27404;52.398;9.646;2023-02-28T06:46:07;102464.38;;;-5.37;100.00
8160;BME280;27404;52.398;9.646;2023-02-28T06:48:33;102463.88;;;-5.43;100.00
8160;BME280;27404;52.398;9.646;2023-02-28T06:51:17;102466.09;;;-5.36;100.00
8160;BME280;27404;52.398;9.646;2023-02-28T06:53:43;102468.44;;;-5.29;100.00
8160;BME280;27404;52.398;9.646;2023-02-28T06:56:13;102470.81;;;-5.25;100.00
8160;BME280;27404;52.398;9.646;2023-02-28T06:58:39;102465.31;;;-5.22;100.00
8160;BME280;27404;52.398;9.646;2023-02-28T07:01:06;102467.75;;;-5.17;100.00
8160;BME280;27404;52.398;9.646;2023-02-28T07:03:32;102473.69;;;-5.12;100.00
8160;BME280;27404;52.398;9.646;2023-02-28T07:05:58;102472.03;;;-4.98;100.00
8160;BME280;27404;52.398;9.646;2023-02-28T07:08:25;102479.47;;;-4.89;100.00
8160;BME280;27404;52.398;9.646;2023-02-28T07:10:54;102481.63;;;-4.80;100.00
8160;BME280;27404;52.398;9.646;2023-02-28T07:13:21;102480.31;;;-4.72;100.00
8160;BME280;27404;52.398;9.646;2023-02-28T07:16:00;102480.56;;;-4.61;100.00
8160;BME280;27404;52.398;9.646;2023-02-28T07:18:27;102471.84;;;-4.49;100.00
8160;BME280;27404;52.398;9.646;2023-02-28T07:20:53;102480.91;;;-4.37;100.00
8160;BME280;27404;52.398;9.646;2023-02-28T07:23:19;102479.31;;;-4.25;100.00
8160;BME280;27404;52.398;9.646;2023-02-28T07:25:45;102476.00;;;-4.14;100.00
8160;BME280;27404;52.398;9.646;2023-02-28T07:28:11;102481.44;;;-4.01;100.00
8160;BME280;27404;52.398;9.646;2023-02-28T07:30:37;102482.69;;;-3.92;100.00
8160;BME280;27404;52.398;9.646;2023-02-28T07:33:03;102486.63;;;-3.83;100.00
8160;BME280;27404;52.398;9.646;2023-02-28T07:35:29;102480.69;;;-3.74;100.00
8160;BME280;27404;52.398;9.646;2023-02-28T07:37:57;102479.38;;;-3.67;100.00
8160;BME280;27404;52.398;9.646;2023-02-28T07:40:22;102476.19;;;-3.59;100.00
8160;BME280;27404;52.398;9.646;2023-02-28T07:42:48;102484.59;;;-3.51;100.00
8160;BME280;27404;52.398;9.646;2023-02-28T07:45:13;102503.50;;;-3.39;100.00
8160;BME280;27404;52.398;9.646;2023-02-28T07:47:39;102494.22;;;-3.34;100.00
8160;BME280;27404;52.398;9.646;2023-02-28T07:50:07;102497.22;;;-3.11;100.00
8160;BME280;27404;52.398;9.646;2023-02-28T07:52:33;102497.91;;;-2.94;100.00
8160;BME280;27404;52.398;9.646;2023-02-28T07:54:58;102495.81;;;-2.89;100.00
8160;BME280;27404;52.398;9.646;2023-02-28T07:57:24;102497.13;;;-2.82;100.00
8160;BME280;27404;52.398;9.646;2023-02-28T07:59:50;102492.13;;;-2.74;100.00
8160;BME280;27404;52.398;9.646;2023-02-28T08:02:17;102490.66;;;-2.65;100.00
8160;BME280;27404;52.398;9.646;2023-02-28T08:04:44;102493.38;;;-2.52;100.00
8160;BME280;27404;52.398;9.646;2023-02-28T08:07:09;102492.97;;;-2.33;100.00
8160;BME280;27404;52.398;9.646;2023-02-28T08:09:39;102490.84;;;-2.28;100.00
8160;BME280;27404;52.398;9.646;2023-02-28T08:12:06;102481.84;;;-2.14;100.00
8160;BME280;27404;52.398;9.646;2023-02-28T08:14:31;102483.78;;;-2.03;100.00
8160;BME280;27404;52.398;9.646;2023-02-28T08:16:57;102488.81;;;-1.85;100.00
8160;BME280;27404;52.398;9.646;2023-02-28T08:19:22;102479.59;;;-1.68;100.00
8160;BME280;27404;52.398;9.646;2023-02-28T08:21:47;102475.78;;;-1.53;100.00
8160;BME280;27404;52.398;9.646;2023-02-28T08:24:13;102473.09;;;-1.40;100.00
8160;BME280;27404;52.398;9.646;2023-02-28T08:26:38;102481.22;;;-1.28;100.00
8160;BME280;27404;52.398;9.646;2023-02-28T08:29:04;102481.72;;;-1.23;100.00
8160;BME280;27404;52.398;9.646;2023-02-28T08:31:29;102482.25;;;-1.18;100.00
8160;BME280;27404;52.398;9.646;2023-02-28T08:33:55;102474.41;;;-1.08;100.00
8160;BME280;27404;52.398;9.646;2023-02-28T08:36:25;102494.94;;;-0.96;100.00
8160;BME280;27404;52.398;9.646;2023-02-28T08:38:51;102497.00;;;-0.75;100.00
8160;BME280;27404;52.398;9.646;2023-02-28T08:41:17;102484.75;;;-0.55;100.00
8160;BME280;27404;52.398;9.646;2023-02-28T08:43:43;102486.25;;;-0.51;100.00
8160;BME280;27404;52.398;9.646;2023-02-28T08:46:12;102479.19;;;-0.40;100.00
8160;BME280;27404;52.398;9.646;2023-02-28T08:48:38;102486.41;;;-0.30;100.00
8160;BME280;27404;52.398;9.646;2023-02-28T08:51:06;102487.06;;;-0.26;100.00
8160;BME280;27404;52.398;9.646;2023-02-28T08:53:33;102482.78;;;-0.17;100.00
8160;BME280;27404;52.398;9.646;2023-02-28T08:56:00;102492.38;;;-0.02;100.00
8160;BME280;27404;52.398;9.646;2023-02-28T08:58:27;102487.97;;;0.09;100.00
8160;BME280;27404;52.398;9.646;2023-02-28T09:00:53;102487.59;;;0.13;100.00
8160;BME280;27404;52.398;9.646;2023-02-28T09:03:19;102493.88;;;0.25;100.00
8160;BME280;27404;52.398;9.646;2023-02-28T09:05:55;102502.41;;;0.42;100.00
8160;BME280;27404;52.398;9.646;2023-02-28T09:08:23;102499.88;;;0.52;100.00
8160;BME280;27404;52.398;9.646;2023-02-28T09:10:48;102491.41;;;0.56;100.00
8160;BME280;27404;52.398;9.646;2023-02-28T09:13:14;102496.91;;;0.66;100.00
8160;BME280;27404;52.398;9.646;2023-02-28T09:15:39;102496.53;;;0.82;100.00
8160;BME280;27404;52.398;9.646;2023-02-28T09:18:05;102498.72;;;0.88;100.00
8160;BME280;27404;52.398;9.646;2023-02-28T09:20:30;102505.44;;;0.94;100.00
8160;BME280;27404;52.398;9.646;2023-02-28T09:22:56;102501.09;;;1.03;100.00
8160;BME280;27404;52.398;9.646;2023-02-28T09:25:21;102496.69;;;1.13;100.00
8160;BME280;27404;52.398;9.646;2023-02-28T09:27:46;102500.53;;;1.32;100.00
8160;BME280;27404;52.398;9.646;2023-02-28T09:30:12;102502.72;;;1.38;100.00
8160;BME280;27404;52.398;9.646;2023-02-28T09:32:38;102514.31;;;1.50;100.00
8160;BME280;27404;52.398;9.646;2023-02-28T09:35:04;102497.97;;;1.63;100.00
8160;BME280;27404;52.398;9.646;2023-02-28T09:37:30;102504.94;;;1.66;100.00
8160;BME280;27404;52.398;9.646;2023-02-28T09:39:56;102502.56;;;1.72;100.00
8160;BME280;27404;52.398;9.646;2023-02-28T09:42:27;102499.94;;;1.82;100.00
8160;BME280;27404;52.398;9.646;2023-02-28T09:44:55;102497.44;;;1.90;100.00
8160;BME280;27404;52.398;9.646;2023-02-28T09:47:34;102494.00;;;2.10;100.00
8160;BME280;27404;52.398;9.646;2023-02-28T09:52:59;102498.38;;;2.32;100.00
8160;BME280;27404;52.398;9.646;2023-02-28T09:55:48;102496.53;;;2.32;100.00
8160;BME280;27404;52.398;9.646;2023-02-28T10:03:57;102497.50;;;2.62;100.00
8160;BME280;27404;52.398;9.646;2023-02-28T10:06:29;102498.28;;;2.84;100.00
8160;BME280;27404;52.398;9.646;2023-02-28T10:09:07;102502.06;;;2.62;97.07
8160;BME280;27404;52.398;9.646;2023-02-28T10:11:35;102501.50;;;2.68;94.97
8160;BME280;27404;52.398;9.646;2023-02-28T10:14:10;102502.38;;;2.78;93.61
8160;BME280;27404;52.398;9.646;2023-02-28T10:16:48;102492.19;;;2.92;92.08
8160;BME280;27404;52.398;9.646;2023-02-28T10:19:26;102494.44;;;2.87;85.84
8160;BME280;27404;52.398;9.646;2023-02-28T10:22:13;102498.75;;;3.09;88.00
8160;BME280;27404;52.398;9.646;2023-02-28T10:24:46;102502.91;;;3.23;86.81
8160;BME280;27404;52.398;9.646;2023-02-28T10:27:20;102496.22;;;3.27;85.39
8160;BME280;27404;52.398;9.646;2023-02-28T10:29:51;102498.78;;;3.38;82.29
8160;BME280;27404;52.398;9.646;2023-02-28T10:32:20;102499.06;;;3.25;78.19
8160;BME280;27404;52.398;9.646;2023-02-28T10:34:53;102496.66;;;3.42;75.49
8160;BME280;27404;52.398;9.646;2023-02-28T10:37:20;102500.19;;;3.62;81.46
8160;BME280;27404;52.398;9.646;2023-02-28T10:39:46;102497.34;;;3.74;82.79
8160;BME280;27404;52.398;9.646;2023-02-28T10:47:34;102503.25;;;4.17;75.89
8160;BME280;27404;52.398;9.646;2023-02-28T10:50:02;102493.41;;;4.15;70.11
8160;BME280;27404;52.398;9.646;2023-02-28T10:52:37;102492.13;;;4.20;73.81
8160;BME280;27404;52.398;9.646;2023-02-28T10:55:33;102493.94;;;3.72;65.83
8160;BME280;27404;52.398;9.646;2023-02-28T10:57:59;102493.47;;;3.96;66.34
8160;BME280;27404;52.398;9.646;2023-02-28T11:00:25;102499.13;;;4.12;69.70
8160;BME280;27404;52.398;9.646;2023-02-28T11:02:56;102488.72;;;4.18;67.03
8160;BME280;27404;52.398;9.646;2023-02-28T11:05:33;102500.31;;;3.80;62.06
8160;BME280;27404;52.398;9.646;2023-02-28T11:08:06;102486.53;;;3.74;63.27
8160;BME280;27404;52.398;9.646;2023-02-28T11:10:35;102486.81;;;3.70;59.06
8160;BME280;27404;52.398;9.646;2023-02-28T11:13:01;102489.66;;;3.69;59.96
8160;BME280;27404;52.398;9.646;2023-02-28T11:15:30;102482.25;;;3.71;59.59
8160;BME280;27404;52.398;9.646;2023-02-28T11:18:01;102476.38;;;3.95;62.22
8160;BME280;27404;52.398;9.646;2023-02-28T11:20:32;102479.38;;;3.92;61.18
8160;BME280;27404;52.398;9.646;2023-02-28T11:23:02;102475.13;;;3.70;61.36
8160;BME280;27404;52.398;9.646;2023-02-28T11:25:37;102472.00;;;3.65;58.52
8160;BME280;27404;52.398;9.646;2023-02-28T11:28:27;102474.28;;;3.69;59.58
8160;BME280;27404;52.398;9.646;2023-02-28T11:33:29;102468.75;;;3.61;61.14
8160;BME280;27404;52.398;9.646;2023-02-28T11:36:11;102466.16;;;3.79;64.89
8160;BME280;27404;52.398;9.646;2023-02-28T11:38:38;102463.44;;;3.79;64.58
8160;BME280;27404;52.398;9.646;2023-02-28T11:46:59;102464.59;;;3.77;60.19
8160;BME280;27404;52.398;9.646;2023-02-28T11:49:49;102456.63;;;3.75;62.26
8160;BME280;27404;52.398;9.646;2023-02-28T11:55:41;102460.78;;;3.60;62.37
8160;BME280;27404;52.398;9.646;2023-02-28T12:06:22;102449.97;;;3.20;62.27
8160;BME280;27404;52.398;9.646;2023-02-28T12:09:11;102447.56;;;3.27;65.30
8160;BME280;27404;52.398;9.646;2023-02-28T12:11:53;102442.31;;;3.16;63.41
8160;BME280;27404;52.398;9.646;2023-02-28T12:15:17;102436.91;;;3.16;67.02
8160;BME280;27404;52.398;9.646;2023-02-28T12:17:23;102439.75;;;3.04;66.28
8160;BME280;27404;52.398;9.646;2023-02-28T12:27:39;102437.75;;;3.36;66.51
8160;BME280;27404;52.398;9.646;2023-02-28T12:32:45;102425.09;;;3.46;71.95
8160;BME280;27404;52.398;9.646;2023-02-28T12:35:16;102427.63;;;3.58;70.84
8160;BME280;27404;52.398;9.646;2023-02-28T12:38:01;102427.91;;;3.54;71.65
8160;BME280;27404;52.398;9.646;2023-02-28T12:40:41;102420.66;;;3.45;68.99
8160;BME280;27404;52.398;9.646;2023-02-28T12:43:08;102424.06;;;3.57;69.86
8160;BME280;27404;52.398;9.646;2023-02-28T12:48:09;102414.94;;;3.58;75.15
8160;BME280;27404;52.398;9.646;2023-02-28T12:50:39;102415.84;;;3.29;74.05
8160;BME280;27404;52.398;9.646;2023-02-28T12:53:27;102416.56;;;3.11;73.22
8160;BME280;27404;52.398;9.646;2023-02-28T12:56:09;102405.31;;;3.16;76.91
8160;BME280;27404;52.398;9.646;2023-02-28T12:58:42;102406.44;;;3.23;75.24
8160;BME280;27404;52.398;9.646;2023-02-28T13:09:39;102391.19;;;3.52;76.49
8160;BME280;27404;52.398;9.646;2023-02-28T13:12:13;102382.50;;;3.58;73.26
8160;BME280;27404;52.398;9.646;2023-02-28T13:14:39;102382.34;;;3.69;74.87
8160;BME280;27404;52.398;9.646;2023-02-28T13:22:41;102373.97;;;3.63;70.04
8160;BME280;27404;52.398;9.646;2023-02-28T13:27:48;102366.56;;;3.55;70.35
8160;BME280;27404;52.398;9.646;2023-02-28T13:33:31;102365.97;;;3.61;72.43
8160;BME280;27404;52.398;9.646;2023-02-28T13:38:46;102365.84;;;3.53;68.47
8160;BME280;27404;52.398;9.646;2023-02-28T13:44:10;102353.16;;;3.63;69.26
8160;BME280;27404;52.398;9.646;2023-02-28T13:57:31;102347.47;;;3.66;68.42
8160;BME280;27404;52.398;9.646;2023-02-28T14:05:17;102346.69;;;3.84;65.12
8160;BME280;27404;52.398;9.646;2023-02-28T14:07:49;102349.66;;;3.91;65.31
8160;BME280;27404;52.398;9.646;2023-02-28T14:10:28;102353.34;;;3.90;65.69
8160;BME280;27404;52.398;9.646;2023-02-28T14:16:02;102343.75;;;3.67;63.10
8160;BME280;27404;52.398;9.646;2023-02-28T14:18:34;102346.59;;;3.66;63.88
8160;BME280;27404;52.398;9.646;2023-02-28T14:21:23;102343.41;;;3.80;61.95
8160;BME280;27404;52.398;9.646;2023-02-28T14:27:06;102345.53;;;3.87;62.14
8160;BME280;27404;52.398;9.646;2023-02-28T14:37:59;102354.94;;;3.82;65.57
8160;BME280;27404;52.398;9.646;2023-02-28T14:40:30;102349.81;;;3.79;64.81
8160;BME280;27404;52.398;9.646;2023-02-28T14:43:03;102347.94;;;3.90;64.61
8160;BME280;27404;52.398;9.646;2023-02-28T14:45:31;102350.34;;;3.93;63.52
8160;BME280;27404;52.398;9.646;2023-02-28T14:47:58;102344.13;;;3.82;62.72
8160;BME280;27404;52.398;9.646;2023-02-28T14:50:32;102343.13;;;3.83;63.93
8160;BME280;27404;52.398;9.646;2023-02-28T14:52:59;102343.28;;;3.82;64.47
8160;BME280;27404;52.398;9.646;2023-02-28T14:55:45;102334.59;;;3.78;64.21
8160;BME280;27404;52.398;9.646;2023-02-28T14:58:32;102339.13;;;3.88;65.89
8160;BME280;27404;52.398;9.646;2023-02-28T15:01:00;102344.53;;;3.88;63.01
8160;BME280;27404;52.398;9.646;2023-02-28T15:03:31;102337.00;;;3.81;64.23
8160;BME280;27404;52.398;9.646;2023-02-28T15:06:02;102346.41;;;3.87;61.01
8160;BME280;27404;52.398;9.646;2023-02-28T15:08:29;102343.28;;;3.82;64.08
8160;BME280;27404;52.398;9.646;2023-02-28T15:11:00;102339.31;;;3.76;66.52
8160;BME280;27404;52.398;9.646;2023-02-28T15:13:46;102341.75;;;3.69;63.27
8160;BME280;27404;52.398;9.646;2023-02-28T15:16:25;102333.47;;;3.71;62.10
8160;BME280;27404;52.398;9.646;2023-02-28T15:19:07;102338.19;;;3.69;63.15
8160;BME280;27404;52.398;9.646;2023-02-28T15:21:43;102327.25;;;3.70;62.01
8160;BME280;27404;52.398;9.646;2023-02-28T15:26:54;102334.34;;;3.72;63.49
8160;BME280;27404;52.398;9.646;2023-02-28T15:29:24;102332.94;;;3.67;64.52